Time,TemperatureF,DewpointF,PressureIn,WindDirection,WindDirectionDegrees,WindSpeedMPH,WindSpeedGustMPH,Humidity,HourlyPrecipIn,Conditions,Clouds,dailyrainin,SoftwareType,DateUTC
2013-09-29 00:30:00,34.6,25.0,30.20,SSE,163,0.0,-999.0,68,-99.99,,,0.00,weatherlink.com 1.10,2013-09-29 06:30:00,
2013-09-29 00:45:00,33.7,25.0,30.19,SSE,161,0.0,-999.0,70,-99.99,,,0.00,weatherlink.com 1.10,2013-09-29 06:45:00,
2013-09-29 01:00:00,33.2,25.0,30.19,SSE,161,0.0,-999.0,71,-99.99,,,0.00,weatherlink.com 1.10,2013-09-29 07:00:00,
2013-09-29 01:15:00,33.2,25.0,30.21,SSE,167,0.0,-999.0,71,-99.99,,,0.00,weatherlink.com 1.10,2013-09-29 07:15:00,
2013-09-29 01:30:00,32.1,24.0,30.18,SSE,167,0.0,-999.0,72,-99.99,,,0.00,weatherlink.com 1.10,2013-09-29 07:30:00,
2013-09-29 01:45:00,31.5,24.0,30.20,SSE,167,0.0,-999.0,74,-99.99,,,0.00,weatherlink.com 1.10,2013-09-29 07:45:00,
2013-09-29 02:01:00,31.3,24.0,30.20,SSE,167,0.0,-999.0,74,-99.99,,,0.00,weatherlink.com 1.10,2013-09-29 08:01:00,
2013-09-29 02:16:00,31.0,24.0,30.18,SSE,167,0.0,-999.0,75,-99.99,,,0.00,weatherlink.com 1.10,2013-09-29 08:16:00,
2013-09-29 02:31:00,31.0,24.0,30.18,SSE,167,0.0,-999.0,76,-99.99,,,0.00,weatherlink.com 1.10,2013-09-29 08:31:00,
2013-09-29 02:46:00,30.6,24.0,30.18,SSE,167,0.0,-999.0,75,-99.99,,,0.00,weatherlink.com 1.10,2013-09-29 08:46:00,
2013-09-29 03:02:00,31.0,24.0,30.17,SSE,167,0.0,-999.0,75,-99.99,,,0.00,weatherlink.com 1.10,2013-09-29 09:02:00,
2013-09-29 03:17:00,31.0,24.0,30.14,SSE,167,0.0,-999.0,76,-99.99,,,0.00,weatherlink.com 1.10,2013-09-29 09:17:00,
2013-09-29 03:32:00,30.7,24.0,30.15,SSE,167,0.0,-999.0,76,-99.99,,,0.00,weatherlink.com 1.10,2013-09-29 09:32:00,
2013-09-29 03:47:00,30.3,24.0,30.16,SSE,167,0.0,-999.0,77,-99.99,,,0.00,weatherlink.com 1.10,2013-09-29 09:47:00,
2013-09-29 04:02:00,29.8,23.0,30.16,SSE,167,0.0,-999.0,77,-99.99,,,0.00,weatherlink.com 1.10,2013-09-29 10:02:00,
2013-09-29 04:19:00,29.8,24.0,30.17,SSE,167,0.0,-999.0,78,-99.99,,,0.00,weatherlink.com 1.10,2013-09-29 10:19:00,
2013-09-29 04:34:00,29.4,23.0,30.16,SSE,167,0.0,-999.0,78,-99.99,,,0.00,weatherlink.com 1.10,2013-09-29 10:34:00,
2013-09-29 04:49:00,29.4,23.0,30.16,SSE,167,0.0,-999.0,78,-99.99,,,0.00,weatherlink.com 1.10,2013-09-29 10:49:00,
2013-09-29 05:04:00,28.8,23.0,30.16,SSE,167,0.0,-999.0,79,-99.99,,,0.00,weatherlink.com 1.10,2013-09-29 11:04:00,
2013-09-29 05:19:00,28.7,23.0,30.18,SSE,167,0.0,-999.0,78,-99.99,,,0.00,weatherlink.com 1.10,2013-09-29 11:19:00,
2013-09-29 05:34:00,28.8,22.0,30.18,SSE,167,0.0,-999.0,77,-99.99,,,0.00,weatherlink.com 1.10,2013-09-29 11:34:00,
2013-09-29 05:49:00,28.4,22.0,30.19,SSE,167,0.0,-999.0,77,-99.99,,,0.00,weatherlink.com 1.10,2013-09-29 11:49:00,
2013-09-29 06:04:00,28.2,22.0,30.19,SSE,167,0.0,-999.0,76,-99.99,,,0.00,weatherlink.com 1.10,2013-09-29 12:04:00,
2013-09-29 06:19:00,28.4,21.0,30.27,SSE,167,0.0,-999.0,75,-99.99,,,0.00,weatherlink.com 1.10,2013-09-29 12:19:00,
2013-09-29 06:34:00,28.4,21.0,30.27,SSE,167,0.0,-999.0,74,-99.99,,,0.00,weatherlink.com 1.10,2013-09-29 12:34:00,
2013-09-29 06:50:00,28.2,21.0,30.27,SSE,167,0.0,-999.0,75,-99.99,,,0.00,weatherlink.com 1.10,2013-09-29 12:50:00,
2013-09-29 07:05:00,27.8,21.0,30.27,SSE,167,0.0,-999.0,76,-99.99,,,0.00,weatherlink.com 1.10,2013-09-29 13:05:00,
2013-09-29 07:20:00,27.8,21.0,30.32,SSE,167,0.0,-999.0,76,-99.99,,,0.00,weatherlink.com 1.10,2013-09-29 13:20:00,
2013-09-29 07:35:00,27.8,21.0,30.32,SSE,167,0.0,-999.0,76,-99.99,,,0.00,weatherlink.com 1.10,2013-09-29 13:35:00,
2013-09-29 07:51:00,28.1,21.0,30.32,SSE,167,0.0,-999.0,75,-99.99,,,0.00,weatherlink.com 1.10,2013-09-29 13:51:00,
2013-09-29 08:07:00,28.2,21.0,30.32,SSE,167,0.0,-999.0,74,-99.99,,,0.00,weatherlink.com 1.10,2013-09-29 14:07:00,
2013-09-29 08:21:00,28.4,21.0,30.34,SSE,167,0.0,-999.0,73,-99.99,,,0.00,weatherlink.com 1.10,2013-09-29 14:21:00,
2013-09-29 08:36:00,29.5,20.0,30.34,SSE,167,0.0,-999.0,69,-99.99,,,0.00,weatherlink.com 1.10,2013-09-29 14:36:00,
2013-09-29 08:51:00,31.5,21.0,30.33,SSE,167,0.0,-999.0,64,-99.99,,,0.00,weatherlink.com 1.10,2013-09-29 14:51:00,
2013-09-29 09:07:00,34.3,20.0,30.30,SSE,167,0.0,-999.0,56,-99.99,,,0.00,weatherlink.com 1.10,2013-09-29 15:07:00,
2013-09-29 09:23:00,36.2,21.0,30.28,SSE,167,0.0,-999.0,55,-99.99,,,0.00,weatherlink.com 1.10,2013-09-29 15:23:00,
2013-09-29 09:37:00,38.0,22.0,30.27,SSE,167,0.0,-999.0,52,-99.99,,,0.00,weatherlink.com 1.10,2013-09-29 15:37:00,
2013-09-29 10:09:00,42.9,24.0,30.21,SSE,167,0.0,-999.0,48,-99.99,,,0.00,weatherlink.com 1.10,2013-09-29 16:09:00,
2013-09-29 10:24:00,45.2,28.0,30.21,SSE,167,0.0,-999.0,51,-99.99,,,0.00,weatherlink.com 1.10,2013-09-29 16:24:00,
2013-09-29 10:39:00,48.2,27.0,30.18,SSE,167,0.0,-999.0,44,-99.99,,,0.00,weatherlink.com 1.10,2013-09-29 16:39:00,
2013-09-29 10:54:00,50.8,28.0,30.14,ENE,74,0.0,-999.0,41,-99.99,,,0.00,weatherlink.com 1.10,2013-09-29 16:54:00,
2013-09-29 11:09:00,52.8,24.0,30.12,ENE,73,0.0,-999.0,32,-99.99,,,0.00,weatherlink.com 1.10,2013-09-29 17:09:00,
2013-09-29 11:25:00,55.1,21.0,30.10,NNE,31,0.0,-999.0,27,-99.99,,,0.00,weatherlink.com 1.10,2013-09-29 17:25:00,
2013-09-29 11:39:00,58.0,19.0,30.07,NNW,344,0.0,-999.0,22,-99.99,,,0.00,weatherlink.com 1.10,2013-09-29 17:39:00,
2013-09-29 11:55:00,58.9,23.0,30.06,WSW,250,3.0,-999.0,25,-99.99,,,0.00,weatherlink.com 1.10,2013-09-29 17:55:00,
2013-09-29 12:25:00,59.8,16.0,30.07,SW,234,9.0,-999.0,18,-99.99,,,0.00,weatherlink.com 1.10,2013-09-29 18:25:00,
2013-09-29 12:56:00,63.1,20.0,30.03,SSW,210,0.0,-999.0,19,-99.99,,,0.00,weatherlink.com 1.10,2013-09-29 18:56:00,
2013-09-29 13:11:00,63.1,21.0,30.03,East,86,0.0,-999.0,20,-99.99,,,0.00,weatherlink.com 1.10,2013-09-29 19:11:00,
2013-09-29 13:26:00,64.2,22.0,30.02,SW,231,0.0,-999.0,20,-99.99,,,0.00,weatherlink.com 1.10,2013-09-29 19:26:00,
2013-09-29 13:41:00,64.2,25.0,30.01,WSW,254,0.0,-999.0,23,-99.99,,,0.00,weatherlink.com 1.10,2013-09-29 19:41:00,
2013-09-29 13:57:00,62.3,25.0,30.00,SW,236,0.0,-999.0,24,-99.99,,,0.00,weatherlink.com 1.10,2013-09-29 19:57:00,
2013-09-29 14:12:00,62.3,25.0,30.00,SW,227,0.0,-999.0,24,-99.99,,,0.00,weatherlink.com 1.10,2013-09-29 20:12:00,
2013-09-29 14:27:00,62.4,26.0,29.98,SW,223,0.0,-999.0,25,-99.99,,,0.00,weatherlink.com 1.10,2013-09-29 20:27:00,
2013-09-29 14:42:00,62.7,25.0,29.98,SSE,159,0.0,-999.0,24,-99.99,,,0.00,weatherlink.com 1.10,2013-09-29 20:42:00,
2013-09-29 14:57:00,64.2,28.0,29.97,SW,217,0.0,-999.0,26,-99.99,,,0.00,weatherlink.com 1.10,2013-09-29 20:57:00,
2013-09-29 15:12:00,63.7,27.0,29.97,SW,220,6.0,-999.0,25,-99.99,,,0.00,weatherlink.com 1.10,2013-09-29 21:12:00,
2013-09-29 15:29:00,62.6,26.0,30.00,West,268,6.0,-999.0,25,-99.99,,,0.00,weatherlink.com 1.10,2013-09-29 21:29:00,
2013-09-29 15:44:00,62.9,27.0,29.99,SW,235,0.0,-999.0,26,-99.99,,,0.00,weatherlink.com 1.10,2013-09-29 21:44:00,
2013-09-29 15:59:00,63.5,29.0,29.98,SW,224,4.0,-999.0,27,-99.99,,,0.00,weatherlink.com 1.10,2013-09-29 21:59:00,
2013-09-29 16:14:00,62.7,28.0,29.98,West,276,1.0,-999.0,27,-99.99,,,0.00,weatherlink.com 1.10,2013-09-29 22:14:00,
2013-09-29 16:29:00,62.3,29.0,29.99,SW,225,15.0,-999.0,28,-99.99,,,0.00,weatherlink.com 1.10,2013-09-29 22:29:00,
2013-09-29 16:44:00,61.2,27.0,30.00,SW,215,4.0,-999.0,27,-99.99,,,0.00,weatherlink.com 1.10,2013-09-29 22:44:00,
2013-09-29 16:59:00,62.1,28.0,30.01,WSW,238,0.0,-999.0,27,-99.99,,,0.00,weatherlink.com 1.10,2013-09-29 22:59:00,
2013-09-29 17:14:00,61.2,28.0,30.00,WSW,242,12.0,-999.0,28,-99.99,,,0.00,weatherlink.com 1.10,2013-09-29 23:14:00,
2013-09-29 17:29:00,59.3,25.0,30.03,WSW,244,12.0,-999.0,27,-99.99,,,0.00,weatherlink.com 1.10,2013-09-29 23:29:00,
2013-09-29 17:45:00,58.0,27.0,30.05,WSW,240,0.0,-999.0,31,-99.99,,,0.00,weatherlink.com 1.10,2013-09-29 23:45:00,
2013-09-29 18:00:00,57.0,27.0,30.05,WSW,238,0.0,-999.0,32,-99.99,,,0.00,weatherlink.com 1.10,2013-09-30 00:00:00,
2013-09-29 18:15:00,56.2,27.0,30.07,South,189,0.0,-999.0,32,-99.99,,,0.00,weatherlink.com 1.10,2013-09-30 00:15:00,
2013-09-29 18:30:00,55.4,27.0,30.07,South,186,3.0,-999.0,33,-99.99,,,0.00,weatherlink.com 1.10,2013-09-30 00:30:00,
2013-09-29 18:46:00,54.8,26.0,30.10,South,182,1.0,-999.0,33,-99.99,,,0.00,weatherlink.com 1.10,2013-09-30 00:46:00,
2013-09-29 19:01:00,53.5,26.0,30.10,South,170,3.0,-999.0,34,-99.99,,,0.00,weatherlink.com 1.10,2013-09-30 01:01:00,
2013-09-29 19:16:00,52.9,25.0,30.12,SW,230,0.0,-999.0,34,-99.99,,,0.00,weatherlink.com 1.10,2013-09-30 01:16:00,
2013-09-29 19:31:00,52.8,25.0,30.12,WSW,242,0.0,-999.0,34,-99.99,,,0.00,weatherlink.com 1.10,2013-09-30 01:31:00,
2013-09-29 19:47:00,51.7,25.0,30.14,SW,216,2.0,-999.0,35,-99.99,,,0.00,weatherlink.com 1.10,2013-09-30 01:47:00,
2013-09-29 20:02:00,51.3,24.0,30.16,South,180,0.0,-999.0,34,-99.99,,,0.00,weatherlink.com 1.10,2013-09-30 02:02:00,
2013-09-29 20:17:00,51.1,23.0,30.11,SW,220,0.0,-999.0,34,-99.99,,,0.00,weatherlink.com 1.10,2013-09-30 02:17:00,
2013-09-29 20:32:00,50.7,24.0,30.11,South,172,0.0,-999.0,35,-99.99,,,0.00,weatherlink.com 1.10,2013-09-30 02:32:00,
2013-09-29 20:47:00,50.2,23.0,30.13,SW,230,4.0,-999.0,34,-99.99,,,0.00,weatherlink.com 1.10,2013-09-30 02:47:00,
2013-09-29 21:04:00,49.8,21.0,30.13,SSW,193,0.0,-999.0,32,-99.99,,,0.00,weatherlink.com 1.10,2013-09-30 03:04:00,
2013-09-29 21:20:00,49.6,23.0,30.04,SSW,202,0.0,-999.0,35,-99.99,,,0.00,weatherlink.com 1.10,2013-09-30 03:20:00,
2013-09-29 21:34:00,49.1,23.0,30.04,SSW,192,2.0,-999.0,36,-99.99,,,0.00,weatherlink.com 1.10,2013-09-30 03:34:00,
2013-09-29 21:49:00,48.0,23.0,30.06,SW,219,4.0,-999.0,38,-99.99,,,0.00,weatherlink.com 1.10,2013-09-30 03:49:00,
2013-09-29 22:04:00,47.6,24.0,30.06,South,185,3.0,-999.0,39,-99.99,,,0.00,weatherlink.com 1.10,2013-09-30 04:04:00,
2013-09-29 22:19:00,46.8,24.0,30.00,South,191,3.0,-999.0,41,-99.99,,,0.00,weatherlink.com 1.10,2013-09-30 04:19:00,
2013-09-29 22:34:00,46.5,24.0,29.99,South,177,4.0,-999.0,42,-99.99,,,0.00,weatherlink.com 1.10,2013-09-30 04:34:00,
2013-09-29 22:49:00,46.2,24.0,30.00,SSE,159,2.0,-999.0,42,-99.99,,,0.00,weatherlink.com 1.10,2013-09-30 04:49:00,
2013-09-29 23:04:00,45.7,24.0,30.00,SSE,161,0.0,-999.0,42,-99.99,,,0.00,weatherlink.com 1.10,2013-09-30 05:04:00,
2013-09-29 23:20:00,44.8,23.0,29.94,SSE,151,0.0,-999.0,43,-99.99,,,0.00,weatherlink.com 1.10,2013-09-30 05:20:00,
2013-09-29 23:35:00,44.5,23.0,29.95,SW,223,0.0,-999.0,43,-99.99,,,0.00,weatherlink.com 1.10,2013-09-30 05:35:00,
2013-09-29 23:50:00,43.8,23.0,29.97,South,175,1.0,-999.0,44,-99.99,,,0.00,weatherlink.com 1.10,2013-09-30 05:50:00,